createdAt,value
2023-04-09T00:01:35.545Z,13.20
2023-04-09T00:04:03.764Z,13.30
2023-04-09T00:06:31.929Z,13.20
2023-04-09T00:08:59.982Z,13.20
2023-04-09T00:11:27.986Z,13.20
2023-04-09T00:13:58.338Z,13.20
2023-04-09T00:16:26.427Z,13.30
2023-04-09T00:18:54.647Z,13.20
2023-04-09T00:21:22.723Z,13.30
2023-04-09T00:23:51.060Z,13.20
2023-04-09T00:26:19.139Z,13.30
2023-04-09T00:28:47.257Z,13.30
2023-04-09T00:31:17.248Z,13.30
2023-04-09T00:33:46.459Z,13.30
2023-04-09T00:36:14.534Z,13.20
2023-04-09T00:38:42.594Z,13.20
2023-04-09T00:41:10.655Z,13.20
2023-04-09T00:43:38.717Z,13.20
2023-04-09T00:46:06.941Z,13.20
2023-04-09T00:48:36.446Z,13.20
2023-04-09T00:51:04.606Z,13.20
2023-04-09T00:53:32.650Z,13.30
2023-04-09T00:56:00.716Z,13.20
2023-04-09T00:58:28.799Z,13.20
2023-04-09T01:00:56.877Z,13.20
2023-04-09T01:03:25.082Z,13.20
2023-04-09T01:06:01.100Z,13.20
2023-04-09T01:08:34.480Z,13.20
2023-04-09T01:11:07.189Z,13.20
2023-04-09T01:13:38.188Z,13.20
2023-04-09T01:16:06.743Z,13.20
2023-04-09T01:18:37.697Z,13.20
2023-04-09T01:21:08.351Z,13.20
2023-04-09T01:23:46.850Z,13.20
2023-04-09T01:26:20.219Z,13.20
2023-04-09T01:28:51.049Z,13.20
2023-04-09T01:31:20.165Z,13.20
2023-04-09T01:33:48.176Z,13.20
2023-04-09T01:36:16.247Z,13.20
2023-04-09T01:38:44.348Z,13.20
2023-04-09T01:41:17.677Z,13.20
2023-04-09T01:43:45.787Z,13.20
2023-04-09T01:46:15.251Z,13.20
2023-04-09T01:48:43.312Z,13.20
2023-04-09T01:51:14.103Z,13.20
2023-04-09T01:53:42.233Z,13.20
2023-04-09T01:56:10.347Z,13.20
2023-04-09T01:58:38.383Z,13.20
2023-04-09T02:01:07.853Z,13.20
2023-04-09T02:03:40.563Z,13.10
2023-04-09T02:06:10.540Z,13.20
2023-04-09T02:08:38.603Z,13.10
2023-04-09T02:11:06.889Z,13.10
2023-04-09T02:13:34.933Z,13.10
2023-04-09T02:16:03.023Z,13.10
2023-04-09T02:18:31.518Z,13.10
2023-04-09T02:21:00.944Z,13.20
2023-04-09T02:23:29.092Z,13.20
2023-04-09T02:25:57.118Z,13.20
2023-04-09T02:28:25.154Z,13.20
2023-04-09T02:30:53.283Z,13.20
2023-04-09T02:33:21.347Z,13.10
2023-04-09T02:35:49.400Z,13.20
2023-04-09T02:38:18.851Z,13.20
2023-04-09T02:40:46.921Z,13.20
2023-04-09T02:43:14.937Z,13.20
2023-04-09T02:45:42.990Z,13.10
2023-04-09T02:48:11.054Z,13.20
2023-04-09T02:50:39.104Z,13.20
2023-04-09T02:53:07.132Z,13.10
2023-04-09T02:55:36.545Z,13.10
2023-04-09T02:58:04.610Z,13.20
2023-04-09T03:00:32.719Z,13.20
2023-04-09T03:03:00.990Z,13.10
2023-04-09T03:05:29.242Z,13.10
2023-04-09T03:07:57.265Z,13.10
2023-04-09T03:10:25.331Z,13.10
2023-04-09T03:12:54.869Z,13.10
2023-04-09T03:15:22.940Z,13.10
2023-04-09T03:17:51.135Z,13.10
2023-04-09T03:20:19.360Z,13.10
2023-04-09T03:22:47.429Z,13.10
2023-04-09T03:25:15.810Z,13.10
2023-04-09T03:27:43.862Z,13.10
2023-04-09T03:30:13.737Z,13.10
2023-04-09T03:32:41.787Z,13.10
2023-04-09T03:35:10.213Z,13.00
2023-04-09T03:37:38.244Z,13.10
2023-04-09T03:40:07.568Z,13.10
2023-04-09T03:42:37.434Z,13.10
2023-04-09T03:45:06.465Z,13.10
2023-04-09T03:47:35.978Z,13.10
2023-04-09T03:50:04.075Z,13.10
2023-04-09T03:52:32.098Z,13.00
2023-04-09T03:55:00.148Z,13.10
2023-04-09T03:57:28.192Z,13.10
2023-04-09T03:59:56.203Z,13.10
2023-04-09T04:02:26.880Z,13.10
2023-04-09T04:04:56.755Z,13.00
2023-04-09T04:07:24.798Z,13.10
2023-04-09T04:09:52.846Z,13.00
2023-04-09T04:12:21.016Z,13.00
2023-04-09T04:14:49.019Z,13.00
2023-04-09T04:17:17.057Z,13.10
2023-04-09T04:19:45.088Z,13.00
2023-04-09T04:22:14.482Z,13.00
2023-04-09T04:24:42.594Z,13.00
2023-04-09T04:27:10.674Z,13.00
2023-04-09T04:29:38.933Z,13.00
2023-04-09T04:32:07.356Z,13.00
2023-04-09T04:34:35.401Z,13.00
2023-04-09T04:37:03.552Z,13.00
2023-04-09T04:39:34.131Z,13.00
2023-04-09T04:42:02.588Z,13.00
2023-04-09T04:44:30.767Z,13.00
2023-04-09T04:46:58.778Z,12.90
2023-04-09T04:49:26.817Z,12.90
2023-04-09T04:51:54.835Z,12.90
2023-04-09T04:54:22.866Z,12.90
2023-04-09T04:56:52.450Z,12.90
2023-04-09T04:59:20.523Z,12.90
2023-04-09T05:01:48.603Z,12.90
2023-04-09T05:04:16.788Z,12.90
2023-04-09T05:06:44.825Z,12.90
2023-04-09T05:09:12.895Z,12.90
2023-04-09T05:11:41.030Z,12.90
2023-04-09T05:14:11.380Z,12.90
2023-04-09T05:16:39.510Z,12.90
2023-04-09T05:19:07.760Z,12.80
2023-04-09T05:21:35.821Z,12.90
2023-04-09T05:24:03.885Z,12.90
2023-04-09T05:26:32.120Z,12.90
2023-04-09T05:29:00.188Z,12.90
2023-04-09T05:31:29.651Z,12.90
2023-04-09T05:33:57.758Z,12.90
2023-04-09T05:36:26.013Z,12.90
2023-04-09T05:38:54.447Z,12.90
2023-04-09T05:41:22.743Z,12.90
2023-04-09T05:43:51.044Z,12.90
2023-04-09T05:46:19.233Z,12.90
2023-04-09T05:48:48.766Z,12.90
2023-04-09T05:51:17.144Z,12.90
2023-04-09T05:53:45.838Z,13.00
2023-04-09T05:56:17.196Z,13.10
2023-04-09T05:58:45.373Z,13.10
2023-04-09T06:01:13.911Z,13.20
2023-04-09T06:03:42.144Z,13.20
2023-04-09T06:06:11.664Z,13.30
2023-04-09T06:08:39.745Z,13.30
2023-04-09T06:11:10.428Z,13.40
2023-04-09T06:13:38.617Z,13.50
2023-04-09T06:16:07.332Z,13.60
2023-04-09T06:18:35.483Z,13.60
2023-04-09T06:21:04.170Z,13.70
2023-04-09T06:23:33.591Z,13.80
2023-04-09T06:26:02.043Z,13.80
2023-04-09T06:28:30.036Z,13.90
2023-04-09T06:30:58.111Z,13.80
2023-04-09T06:33:26.256Z,13.90
2023-04-09T06:35:54.405Z,13.90
2023-04-09T06:38:22.468Z,14.00
2023-04-09T06:40:52.204Z,14.10
2023-04-09T06:43:20.395Z,14.10
2023-04-09T06:45:48.529Z,14.20
2023-04-09T06:48:16.688Z,14.20
2023-04-09T06:50:45.375Z,14.20
2023-04-09T06:53:13.574Z,14.20
2023-04-09T06:55:42.161Z,14.20
2023-04-09T06:58:11.661Z,14.20
2023-04-09T07:00:39.752Z,14.30
2023-04-09T07:03:09.247Z,14.40
2023-04-09T07:05:37.648Z,14.40
2023-04-09T07:08:06.150Z,14.50
2023-04-09T07:10:34.287Z,14.60
2023-04-09T07:13:02.586Z,14.70
2023-04-09T07:15:32.037Z,14.80
2023-04-09T07:18:04.025Z,14.80
2023-04-09T07:20:32.114Z,14.90
2023-04-09T07:23:00.148Z,14.90
2023-04-09T07:25:28.339Z,14.80
2023-04-09T07:27:57.013Z,14.90
2023-04-09T07:30:25.853Z,14.90
2023-04-09T07:32:55.381Z,14.90
2023-04-09T07:35:23.428Z,14.90
2023-04-09T07:37:51.486Z,14.90
2023-04-09T07:40:19.995Z,15.00
2023-04-09T07:42:48.607Z,15.00
2023-04-09T07:45:17.206Z,15.00
2023-04-09T07:47:45.299Z,15.10
2023-04-09T07:50:14.859Z,15.10
2023-04-09T07:52:43.132Z,15.10
2023-04-09T07:55:11.410Z,15.10
2023-04-09T07:57:39.494Z,15.10
2023-04-09T08:00:08.607Z,15.20
2023-04-09T08:02:37.041Z,15.20
2023-04-09T08:05:05.674Z,15.20
2023-04-09T08:07:35.135Z,15.20
2023-04-09T08:10:03.255Z,15.20
2023-04-09T08:12:31.278Z,15.20
2023-04-09T08:14:59.366Z,15.30
2023-04-09T08:17:27.489Z,15.30
2023-04-09T08:19:55.802Z,15.30
2023-04-09T08:22:23.817Z,15.40
2023-04-09T08:24:54.040Z,15.40
2023-04-09T08:27:22.131Z,15.40
2023-04-09T08:29:50.758Z,15.40
2023-04-09T08:32:19.059Z,15.50
2023-04-09T08:34:47.159Z,15.50
2023-04-09T08:37:16.705Z,15.60
2023-04-09T08:39:45.009Z,15.60
2023-04-09T08:42:15.055Z,15.70
2023-04-09T08:44:43.061Z,15.70
2023-04-09T08:47:11.979Z,15.70
2023-04-09T08:49:40.979Z,15.80
2023-04-09T08:52:09.162Z,15.80
2023-04-09T08:54:37.438Z,15.80
2023-04-09T08:57:08.750Z,15.90
2023-04-09T08:59:38.245Z,15.90
2023-04-09T09:02:09.719Z,15.90
2023-04-09T09:04:47.560Z,15.90
2023-04-09T09:07:17.857Z,15.90
2023-04-09T09:09:53.765Z,15.90
2023-04-09T09:12:33.035Z,15.90
2023-04-09T09:15:02.498Z,15.80
2023-04-09T09:17:31.775Z,15.80
2023-04-09T09:19:59.940Z,15.80
2023-04-09T09:22:28.140Z,15.80
2023-04-09T09:24:57.512Z,15.90
2023-04-09T09:27:36.941Z,15.80
2023-04-09T09:30:08.647Z,15.80
2023-04-09T09:32:36.737Z,15.90
2023-04-09T09:35:05.983Z,15.80
2023-04-09T09:37:34.215Z,15.90
2023-04-09T09:40:02.533Z,15.90
2023-04-09T09:42:30.622Z,15.90
2023-04-09T09:44:58.653Z,15.90
2023-04-09T09:47:29.541Z,15.90
2023-04-09T09:49:57.596Z,15.90
2023-04-09T09:52:26.987Z,15.90
2023-04-09T09:54:55.933Z,15.90
2023-04-09T09:57:24.990Z,15.90
2023-04-09T09:59:56.075Z,15.90
2023-04-09T10:02:24.973Z,15.90
2023-04-09T10:04:54.779Z,15.90
2023-04-09T10:07:24.147Z,15.90
2023-04-09T10:09:52.635Z,15.90
2023-04-09T10:12:21.023Z,15.80
2023-04-09T10:14:49.061Z,15.80
2023-04-09T10:17:17.496Z,15.90
2023-04-09T10:19:50.632Z,15.80
2023-04-09T10:22:21.415Z,15.80
2023-04-09T10:24:49.536Z,15.70
2023-04-09T10:27:18.785Z,15.80
2023-04-09T10:29:47.360Z,15.80
2023-04-09T10:32:21.124Z,15.80
2023-04-09T10:34:50.593Z,15.70
2023-04-09T10:37:22.646Z,15.70
2023-04-09T10:39:51.522Z,15.70
2023-04-09T10:42:20.584Z,15.70
2023-04-09T10:44:48.719Z,15.80
2023-04-09T10:47:32.187Z,15.80
2023-04-09T10:50:00.434Z,15.80
2023-04-09T10:52:33.695Z,15.70
2023-04-09T10:55:01.839Z,15.70
2023-04-09T10:57:29.828Z,15.70
2023-04-09T10:59:57.923Z,15.70
2023-04-09T11:03:04.517Z,15.70
2023-04-09T11:05:34.294Z,15.70
2023-04-09T11:08:08.262Z,15.70
2023-04-09T11:10:36.614Z,15.70
2023-04-09T11:13:05.019Z,15.70
2023-04-09T11:15:33.110Z,15.60
2023-04-09T11:18:02.414Z,15.60
2023-04-09T11:20:32.139Z,15.60
2023-04-09T11:23:00.257Z,15.60
2023-04-09T11:25:31.296Z,15.60
2023-04-09T11:27:59.385Z,15.60
2023-04-09T11:30:27.457Z,15.60
2023-04-09T11:32:55.528Z,15.70
2023-04-09T11:35:23.904Z,15.60
2023-04-09T11:37:52.372Z,15.60
2023-04-09T11:40:21.754Z,15.60
2023-04-09T11:42:52.315Z,15.60
2023-04-09T11:45:21.481Z,15.60
2023-04-09T11:47:49.682Z,15.60
2023-04-09T11:50:17.864Z,15.60
2023-04-09T11:52:46.409Z,15.60
2023-04-09T11:55:23.616Z,15.60
2023-04-09T11:57:53.824Z,15.70
2023-04-09T12:00:22.002Z,15.70
2023-04-09T12:02:50.572Z,15.70
2023-04-09T12:05:22.733Z,15.60
2023-04-09T12:07:56.371Z,15.70
2023-04-09T12:10:28.355Z,15.70
2023-04-09T12:13:02.670Z,15.60
2023-04-09T12:15:33.098Z,15.70
2023-04-09T12:18:01.438Z,15.70
2023-04-09T12:20:30.863Z,15.70
2023-04-09T12:23:00.216Z,15.70
2023-04-09T12:25:28.482Z,15.70
2023-04-09T12:27:58.424Z,15.70
2023-04-09T12:30:26.545Z,15.70
2023-04-09T12:32:54.910Z,15.70
2023-04-09T12:35:23.329Z,15.70
2023-04-09T12:37:51.501Z,15.70
2023-04-09T12:40:20.566Z,15.70
2023-04-09T12:42:48.703Z,15.70
2023-04-09T12:45:19.249Z,15.70
2023-04-09T12:47:47.470Z,15.70
2023-04-09T12:50:16.159Z,15.70
2023-04-09T12:52:44.417Z,15.60
2023-04-09T12:55:12.697Z,15.60
2023-04-09T12:57:41.038Z,15.60
2023-04-09T13:00:10.133Z,15.60
2023-04-09T13:02:39.676Z,15.70
2023-04-09T13:05:08.355Z,15.70
2023-04-09T13:07:36.420Z,15.60
2023-04-09T13:10:04.879Z,15.60
2023-04-09T13:12:32.984Z,15.60
2023-04-09T13:15:01.551Z,15.60
2023-04-09T13:17:29.719Z,15.60
2023-04-09T13:19:59.214Z,15.60
2023-04-09T13:22:27.316Z,15.60
2023-04-09T13:24:55.687Z,15.60
2023-04-09T13:27:23.717Z,15.60
2023-04-09T13:29:51.748Z,15.60
2023-04-09T13:32:21.887Z,15.60
2023-04-09T13:34:50.020Z,15.60
2023-04-09T13:37:19.510Z,15.60
2023-04-09T13:39:47.542Z,15.60
2023-04-09T13:42:17.036Z,15.60
2023-04-09T13:44:45.485Z,15.60
2023-04-09T13:47:14.011Z,15.60
2023-04-09T13:49:45.125Z,15.60
2023-04-09T13:52:13.234Z,15.60
2023-04-09T13:54:42.652Z,15.60
2023-04-09T13:57:10.848Z,15.60
2023-04-09T13:59:39.133Z,15.60
2023-04-09T14:02:07.299Z,15.70
2023-04-09T14:04:35.430Z,15.70
2023-04-09T14:07:03.631Z,15.60
2023-04-09T14:09:31.985Z,15.60
2023-04-09T14:12:01.955Z,15.60
2023-04-09T14:14:30.088Z,15.60
2023-04-09T14:16:58.263Z,15.60
2023-04-09T14:19:26.387Z,15.60
2023-04-09T14:21:55.346Z,15.60
2023-04-09T14:24:23.409Z,15.60
2023-04-09T14:26:53.294Z,15.60
2023-04-09T14:29:23.042Z,15.60
2023-04-09T14:31:51.808Z,15.60
2023-04-09T14:34:19.868Z,15.60
2023-04-09T14:36:47.936Z,15.60
2023-04-09T14:39:16.087Z,15.50
2023-04-09T14:41:44.165Z,15.50
2023-04-09T14:44:12.333Z,15.60
2023-04-09T14:46:41.853Z,15.60
2023-04-09T14:49:09.923Z,15.60
2023-04-09T14:51:37.945Z,15.60
2023-04-09T14:54:06.080Z,15.60
2023-04-09T14:56:34.145Z,15.60
2023-04-09T14:59:02.232Z,15.50
2023-04-09T15:01:32.504Z,15.60
2023-04-09T15:04:02.746Z,15.60
2023-04-09T15:06:31.402Z,15.50
2023-04-09T15:08:59.448Z,15.50
2023-04-09T15:11:28.882Z,15.50
2023-04-09T15:13:57.914Z,15.50
2023-04-09T15:16:27.390Z,15.50
2023-04-09T15:18:57.671Z,15.50
2023-04-09T15:21:27.239Z,15.40
2023-04-09T15:23:55.397Z,15.40
2023-04-09T15:26:23.427Z,15.40
2023-04-09T15:28:53.588Z,15.40
2023-04-09T15:31:21.854Z,15.40
2023-04-09T15:33:50.402Z,15.40
2023-04-09T15:36:18.498Z,15.40
2023-04-09T15:38:47.998Z,15.40
2023-04-09T15:41:17.093Z,15.40
2023-04-09T15:43:45.388Z,15.30
2023-04-09T15:46:15.495Z,15.30
2023-04-09T15:48:43.588Z,15.30
2023-04-09T15:51:11.996Z,15.30
2023-04-09T15:53:40.101Z,15.30
2023-04-09T15:56:11.615Z,15.30
2023-04-09T15:58:40.253Z,15.30
2023-04-09T16:01:08.761Z,15.30
2023-04-09T16:03:39.918Z,15.30
2023-04-09T16:06:08.616Z,15.20
2023-04-09T16:08:36.693Z,15.20
2023-04-09T16:11:04.852Z,15.20
2023-04-09T16:13:34.287Z,15.20
2023-04-09T16:16:02.503Z,15.20
2023-04-09T16:18:30.650Z,15.20
2023-04-09T16:20:58.681Z,15.20
2023-04-09T16:23:29.060Z,15.20
2023-04-09T16:25:58.447Z,15.20
2023-04-09T16:28:26.525Z,15.20
2023-04-09T16:30:56.007Z,15.20
2023-04-09T16:33:24.083Z,15.20
2023-04-09T16:35:52.305Z,15.10
2023-04-09T16:38:20.350Z,15.10
2023-04-09T16:40:48.420Z,15.10
2023-04-09T16:43:16.478Z,15.10
2023-04-09T16:45:44.772Z,15.10
2023-04-09T16:48:14.402Z,15.10
2023-04-09T16:50:42.910Z,15.10
2023-04-09T16:53:10.969Z,15.10
2023-04-09T16:55:39.013Z,15.10
2023-04-09T16:58:07.073Z,15.10
2023-04-09T17:00:35.775Z,15.10
2023-04-09T17:03:04.257Z,15.10
2023-04-09T17:05:33.909Z,15.00
2023-04-09T17:08:02.249Z,15.00
2023-04-09T17:10:30.663Z,15.00
2023-04-09T17:12:58.778Z,15.00
2023-04-09T17:15:27.372Z,15.00
2023-04-09T17:17:55.815Z,15.00
2023-04-09T17:20:25.275Z,14.90
2023-04-09T17:22:54.802Z,14.90
2023-04-09T17:25:22.903Z,14.90
2023-04-09T17:27:51.743Z,14.90
2023-04-09T17:30:19.895Z,15.00
2023-04-09T17:32:48.704Z,15.00
2023-04-09T17:35:16.780Z,14.90
2023-04-09T17:37:45.306Z,15.00
2023-04-09T17:40:18.647Z,15.10
2023-04-09T17:42:46.844Z,15.10
2023-04-09T17:45:15.106Z,15.00
2023-04-09T17:47:43.256Z,15.10
2023-04-09T17:50:11.810Z,15.00
2023-04-09T17:52:40.038Z,15.00
2023-04-09T17:55:09.626Z,15.00
2023-04-09T17:57:39.284Z,14.90
2023-04-09T18:00:09.514Z,15.00
2023-04-09T18:02:37.889Z,15.00
2023-04-09T18:05:07.259Z,15.00
2023-04-09T18:07:35.608Z,15.10
2023-04-09T18:10:03.931Z,15.20
2023-04-09T18:12:32.381Z,15.10
2023-04-09T18:15:02.091Z,15.10
2023-04-09T18:17:30.261Z,15.00
2023-04-09T18:19:58.670Z,15.00
2023-04-09T18:22:27.042Z,15.00
2023-04-09T18:24:55.186Z,14.90
2023-04-09T18:27:23.292Z,14.90
2023-04-09T18:29:51.404Z,14.90
2023-04-09T18:32:20.961Z,14.90
2023-04-09T18:34:49.158Z,15.00
2023-04-09T18:37:17.326Z,15.10
2023-04-09T18:39:46.005Z,15.00
2023-04-09T18:42:14.328Z,15.00
2023-04-09T18:44:53.391Z,15.00
2023-04-09T18:47:26.925Z,15.00
2023-04-09T18:49:55.173Z,15.10
2023-04-09T18:52:23.285Z,15.20
2023-04-09T18:54:51.418Z,15.50
2023-04-09T18:57:19.989Z,15.70
2023-04-09T18:59:49.110Z,16.00
2023-04-09T19:02:17.739Z,16.30
2023-04-09T19:04:47.864Z,16.60
2023-04-09T19:07:16.235Z,16.80
2023-04-09T19:09:44.654Z,17.00
2023-04-09T19:12:12.783Z,17.20
2023-04-09T19:14:41.273Z,17.40
2023-04-09T19:17:09.449Z,17.60
2023-04-09T19:19:37.967Z,17.80
2023-04-09T19:22:07.514Z,18.00
2023-04-09T19:24:35.677Z,18.10
2023-04-09T19:27:09.551Z,18.20
2023-04-09T19:29:37.681Z,18.40
2023-04-09T19:32:05.913Z,18.50
2023-04-09T19:34:34.170Z,18.60
2023-04-09T19:37:02.591Z,18.70
2023-04-09T19:39:32.372Z,18.80
2023-04-09T19:42:00.731Z,18.90
2023-04-09T19:44:29.288Z,18.90
2023-04-09T19:46:58.592Z,19.00
2023-04-09T19:49:29.704Z,19.10
2023-04-09T19:51:57.781Z,19.10
2023-04-09T19:54:26.905Z,19.20
2023-04-09T19:56:56.464Z,19.20
2023-04-09T19:59:24.961Z,19.30
2023-04-09T20:01:53.114Z,19.40
2023-04-09T20:04:24.605Z,19.40
2023-04-09T20:06:52.925Z,19.30
2023-04-09T20:09:23.922Z,19.10
2023-04-09T20:11:52.070Z,18.80
2023-04-09T20:14:21.545Z,18.60
2023-04-09T20:16:50.294Z,18.20
2023-04-09T20:19:19.839Z,17.80
2023-04-09T20:21:49.159Z,17.70
2023-04-09T20:24:17.821Z,17.50
2023-04-09T20:26:46.574Z,17.30
2023-04-09T20:29:15.497Z,17.10
2023-04-09T20:31:45.586Z,17.00
2023-04-09T20:34:13.895Z,16.80
2023-04-09T20:36:47.716Z,16.80
2023-04-09T20:39:15.939Z,16.70
2023-04-09T20:41:44.496Z,16.60
2023-04-09T20:44:12.769Z,16.40
2023-04-09T20:46:43.047Z,16.40
2023-04-09T20:49:13.174Z,16.20
2023-04-09T20:51:41.386Z,16.10
2023-04-09T20:54:09.944Z,16.10
2023-04-09T20:56:38.163Z,16.10
2023-04-09T20:59:06.435Z,16.20
2023-04-09T21:01:34.863Z,16.40
2023-04-09T21:04:12.904Z,16.40
2023-04-09T21:06:42.437Z,16.60
2023-04-09T21:09:10.817Z,16.60
2023-04-09T21:11:38.969Z,16.70
2023-04-09T21:14:08.094Z,16.80
2023-04-09T21:16:36.196Z,16.80
2023-04-09T21:19:07.254Z,16.90
2023-04-09T21:21:35.550Z,17.00
2023-04-09T21:24:05.548Z,17.00
2023-04-09T21:26:48.752Z,17.10
2023-04-09T21:29:19.325Z,17.10
2023-04-09T21:31:47.449Z,17.20
2023-04-09T21:34:15.626Z,17.20
2023-04-09T21:36:45.364Z,17.20
2023-04-09T21:39:15.078Z,17.30
2023-04-09T21:41:43.172Z,17.30
2023-04-09T21:44:11.240Z,17.30
2023-04-09T21:46:40.497Z,17.40
2023-04-09T21:49:09.020Z,17.40
2023-04-09T21:51:37.487Z,17.40
2023-04-09T21:54:12.204Z,17.40
2023-04-09T21:56:42.145Z,17.40
2023-04-09T21:59:10.329Z,17.50
2023-04-09T22:01:38.461Z,17.50
2023-04-09T22:04:15.714Z,17.50
2023-04-09T22:06:46.590Z,17.50
2023-04-09T22:09:14.890Z,17.50
2023-04-09T22:11:45.383Z,17.50
2023-04-09T22:14:15.737Z,17.60
2023-04-09T22:16:50.376Z,17.60
2023-04-09T22:19:18.593Z,17.60
2023-04-09T22:21:50.559Z,17.60
2023-04-09T22:24:19.351Z,17.60
2023-04-09T22:26:49.806Z,17.60
2023-04-09T22:29:21.111Z,17.60
2023-04-09T22:31:52.574Z,17.60
2023-04-09T22:34:28.265Z,17.60
2023-04-09T22:37:01.349Z,17.60
2023-04-09T22:39:39.583Z,17.70
2023-04-09T22:42:18.824Z,17.70
2023-04-09T22:44:49.057Z,17.70
2023-04-09T22:47:23.480Z,17.70
2023-04-09T22:50:00.850Z,17.70
2023-04-09T22:52:34.146Z,17.70
2023-04-09T22:55:10.250Z,17.70
2023-04-09T22:57:49.730Z,17.60
2023-04-09T23:00:21.488Z,17.60
2023-04-09T23:02:58.074Z,17.70
2023-04-09T23:05:39.854Z,17.70
2023-04-09T23:08:15.720Z,17.70
2023-04-09T23:10:54.627Z,17.70
2023-04-09T23:13:27.169Z,17.60
2023-04-09T23:16:02.684Z,17.70
2023-04-09T23:18:35.536Z,17.70
2023-04-09T23:21:12.673Z,17.70
2023-04-09T23:23:44.263Z,17.70
2023-04-09T23:26:21.123Z,17.70
2023-04-09T23:29:03.867Z,17.70
2023-04-09T23:31:39.280Z,17.70
2023-04-09T23:34:17.624Z,17.70
2023-04-09T23:36:59.164Z,17.70
2023-04-09T23:39:31.845Z,17.70
2023-04-09T23:42:09.630Z,17.80
2023-04-09T23:44:49.796Z,17.80
2023-04-09T23:47:28.149Z,17.80
2023-04-09T23:50:08.876Z,17.80
2023-04-09T23:52:50.237Z,17.80
2023-04-09T23:55:22.854Z,17.80
2023-04-09T23:58:05.140Z,17.80
